createdAt,value
2022-12-26T00:00:39.534Z,10.1
2022-12-26T00:01:39.470Z,10.1
2022-12-26T00:02:39.524Z,10.1
2022-12-26T00:03:39.629Z,10.1
2022-12-26T00:04:48.451Z,10.1
2022-12-26T00:05:39.494Z,10.1
2022-12-26T00:06:39.471Z,10.1
2022-12-26T00:07:39.470Z,10.1
2022-12-26T00:08:39.503Z,10.1
2022-12-26T00:09:39.471Z,10.1
2022-12-26T00:10:39.495Z,10.1
2022-12-26T00:11:39.506Z,10.1
2022-12-26T00:12:39.488Z,10.1
2022-12-26T00:13:41.265Z,10.1
2022-12-26T00:14:39.474Z,10.1
2022-12-26T00:15:39.492Z,10.1
2022-12-26T00:16:39.498Z,10
2022-12-26T00:17:39.472Z,10
2022-12-26T00:18:39.522Z,10
2022-12-26T00:19:39.671Z,10
2022-12-26T00:20:39.514Z,10
2022-12-26T00:21:39.469Z,10
2022-12-26T00:22:39.469Z,10
2022-12-26T00:23:39.487Z,10
2022-12-26T00:24:39.484Z,10
2022-12-26T00:25:39.489Z,10
2022-12-26T00:26:39.475Z,10
2022-12-26T00:27:39.470Z,10
2022-12-26T00:28:39.474Z,10
2022-12-26T00:29:39.475Z,10
2022-12-26T00:30:39.501Z,10
2022-12-26T00:31:39.514Z,10
2022-12-26T00:32:39.468Z,10
2022-12-26T00:33:39.478Z,10
2022-12-26T00:34:39.482Z,10
2022-12-26T00:35:39.532Z,10
2022-12-26T00:36:39.467Z,10.1
2022-12-26T00:37:39.488Z,10.1
2022-12-26T00:38:39.481Z,10
2022-12-26T00:39:39.476Z,10.1
2022-12-26T00:40:39.493Z,10.1
2022-12-26T00:41:39.475Z,10.1
2022-12-26T00:42:39.475Z,10.1
2022-12-26T00:43:39.470Z,10.1
2022-12-26T00:44:39.476Z,10.1
2022-12-26T00:45:39.485Z,10
2022-12-26T00:46:39.582Z,10
2022-12-26T00:47:39.483Z,10
2022-12-26T00:48:39.491Z,10
2022-12-26T00:50:14.503Z,10
2022-12-26T00:50:39.475Z,10
2022-12-26T00:51:39.469Z,10
2022-12-26T00:52:39.477Z,10
2022-12-26T00:53:39.512Z,10
2022-12-26T00:54:39.476Z,10
2022-12-26T00:55:39.484Z,10
2022-12-26T00:56:39.505Z,10
2022-12-26T00:57:39.488Z,10
2022-12-26T00:58:39.503Z,10
2022-12-26T00:59:39.473Z,10
2022-12-26T01:00:39.504Z,10
2022-12-26T01:01:39.689Z,10
2022-12-26T01:02:39.720Z,10.1
2022-12-26T01:03:39.483Z,10
2022-12-26T01:04:39.482Z,10.1
2022-12-26T01:05:39.485Z,10.1
2022-12-26T01:06:39.472Z,10.1
2022-12-26T01:08:19.281Z,10.1
2022-12-26T01:08:39.509Z,10.1
2022-12-26T01:09:39.614Z,10.1
2022-12-26T01:10:39.473Z,10.1
2022-12-26T01:11:39.676Z,10.1
2022-12-26T01:12:39.473Z,10.1
2022-12-26T01:13:39.742Z,10.1
2022-12-26T01:14:39.476Z,10.1
2022-12-26T01:15:39.641Z,10.1
2022-12-26T01:16:39.718Z,10.1
2022-12-26T01:17:39.475Z,10.1
2022-12-26T01:18:39.750Z,10.1
2022-12-26T01:19:39.487Z,10.1
2022-12-26T01:20:39.753Z,10.1
2022-12-26T01:21:39.478Z,10.1
2022-12-26T01:22:39.751Z,10.1
2022-12-26T01:23:39.569Z,10.1
2022-12-26T01:24:39.769Z,10.1
2022-12-26T01:26:14.774Z,10.1
2022-12-26T01:26:39.503Z,10.1
2022-12-26T01:27:39.479Z,10.1
2022-12-26T01:28:39.481Z,10.1
2022-12-26T01:29:39.472Z,10.1
2022-12-26T01:30:39.484Z,10.1
2022-12-26T01:31:39.579Z,10.1
2022-12-26T01:32:39.478Z,10.1
2022-12-26T01:33:39.478Z,10.1
2022-12-26T01:34:39.473Z,10.1
2022-12-26T01:35:39.468Z,10.1
2022-12-26T01:36:39.477Z,10.1
2022-12-26T01:37:39.489Z,10.1
2022-12-26T01:38:39.472Z,10.1
2022-12-26T01:39:39.481Z,10.1
2022-12-26T01:40:39.475Z,10.1
2022-12-26T01:41:39.470Z,10.1
2022-12-26T01:42:39.491Z,10.1
2022-12-26T01:43:39.473Z,10.1
2022-12-26T01:44:39.481Z,10.1
2022-12-26T01:45:39.503Z,10.1
2022-12-26T01:46:39.487Z,10.1
2022-12-26T01:47:39.476Z,10.1
2022-12-26T01:48:39.475Z,10.1
2022-12-26T01:49:39.475Z,10.1
2022-12-26T01:50:39.487Z,10.1
2022-12-26T01:51:39.469Z,10.1
2022-12-26T01:52:39.481Z,10.1
2022-12-26T01:53:39.531Z,10.1
2022-12-26T01:54:42.527Z,10.1
2022-12-26T01:55:39.485Z,10.1
2022-12-26T01:56:39.492Z,10.1
2022-12-26T01:57:39.507Z,10.1
2022-12-26T01:58:39.472Z,10.1
2022-12-26T01:59:39.467Z,10.1
2022-12-26T02:00:39.519Z,10.1
2022-12-26T02:01:39.546Z,10.1
2022-12-26T02:02:39.550Z,10.1
2022-12-26T02:03:39.475Z,10.1
2022-12-26T02:04:39.484Z,10.1
2022-12-26T02:05:39.477Z,10.1
2022-12-26T02:06:39.468Z,10.1
2022-12-26T02:07:39.481Z,10.1
2022-12-26T02:08:39.482Z,10.1
2022-12-26T02:09:39.472Z,10.1
2022-12-26T02:10:39.486Z,10.1
2022-12-26T02:11:39.480Z,10.1
2022-12-26T02:12:39.600Z,10.1
2022-12-26T02:13:39.471Z,10.2
2022-12-26T02:14:39.477Z,10.1
2022-12-26T02:15:39.477Z,10.1
2022-12-26T02:16:39.559Z,10.1
2022-12-26T02:17:39.496Z,10.1
2022-12-26T02:18:39.481Z,10.1
2022-12-26T02:19:39.471Z,10.1
2022-12-26T02:20:39.473Z,10.1
2022-12-26T02:21:39.469Z,10.1
2022-12-26T02:22:39.468Z,10.1
2022-12-26T02:23:39.478Z,10.1
2022-12-26T02:24:39.480Z,10.1
2022-12-26T02:25:39.471Z,10.1
2022-12-26T02:26:39.477Z,10
2022-12-26T02:27:39.473Z,10.1
2022-12-26T02:28:39.467Z,10.1
2022-12-26T02:29:39.474Z,10
2022-12-26T02:30:39.473Z,10.1
2022-12-26T02:31:39.506Z,10.1
2022-12-26T02:32:39.472Z,10
2022-12-26T02:33:39.470Z,10
2022-12-26T02:34:39.472Z,10
2022-12-26T02:35:39.476Z,10.1
2022-12-26T02:36:39.471Z,10
2022-12-26T02:37:39.475Z,10.1
2022-12-26T02:38:39.477Z,10
2022-12-26T02:39:43.218Z,10
2022-12-26T02:40:39.478Z,10.1
2022-12-26T02:41:39.654Z,10.1
2022-12-26T02:42:39.472Z,10
2022-12-26T02:43:39.476Z,10.1
2022-12-26T02:44:39.470Z,10.1
2022-12-26T02:45:39.516Z,10
2022-12-26T02:46:39.491Z,10
2022-12-26T02:47:39.471Z,10
2022-12-26T02:48:39.470Z,10
2022-12-26T02:49:39.484Z,10
2022-12-26T02:50:39.473Z,10
2022-12-26T02:51:39.474Z,10
2022-12-26T02:52:39.486Z,10
2022-12-26T02:53:39.485Z,10
2022-12-26T02:54:39.570Z,10
2022-12-26T02:55:39.473Z,10
2022-12-26T02:56:39.467Z,10
2022-12-26T02:57:39.470Z,10
2022-12-26T02:58:39.476Z,10
2022-12-26T02:59:53.695Z,9.9
2022-12-26T03:00:39.473Z,10
2022-12-26T03:01:39.535Z,10
2022-12-26T03:02:39.524Z,9.9
2022-12-26T03:03:39.478Z,9.9
2022-12-26T03:04:39.476Z,9.9
2022-12-26T03:05:39.480Z,9.9
2022-12-26T03:06:39.490Z,9.9
2022-12-26T03:07:39.473Z,9.9
2022-12-26T03:08:39.469Z,9.9
2022-12-26T03:09:39.478Z,9.9
2022-12-26T03:10:39.472Z,9.9
2022-12-26T03:11:39.569Z,9.9
2022-12-26T03:12:39.797Z,9.9
2022-12-26T03:13:40.040Z,9.9
2022-12-26T03:14:39.485Z,9.9
2022-12-26T03:15:39.761Z,9.9
2022-12-26T03:16:39.582Z,9.9
2022-12-26T03:17:39.486Z,9.9
2022-12-26T03:18:57.367Z,9.9
2022-12-26T03:19:39.477Z,9.9
2022-12-26T03:20:39.471Z,9.9
2022-12-26T03:21:39.504Z,9.9
2022-12-26T03:22:39.491Z,9.9
2022-12-26T03:23:39.472Z,9.9
2022-12-26T03:24:39.471Z,9.9
2022-12-26T03:25:39.475Z,9.9
2022-12-26T03:26:39.503Z,9.9
2022-12-26T03:27:39.473Z,9.9
2022-12-26T03:28:39.506Z,9.9
2022-12-26T03:29:39.473Z,9.9
2022-12-26T03:30:39.495Z,9.9
2022-12-26T03:31:39.504Z,9.9
2022-12-26T03:32:39.481Z,9.9
2022-12-26T03:33:39.489Z,9.9
2022-12-26T03:34:39.479Z,9.9
2022-12-26T03:35:39.486Z,9.9
2022-12-26T03:36:39.519Z,9.9
2022-12-26T03:37:48.201Z,10
2022-12-26T03:38:39.476Z,10
2022-12-26T03:39:39.474Z,10
2022-12-26T03:40:39.479Z,10
2022-12-26T03:41:39.497Z,10
2022-12-26T03:42:39.482Z,10
2022-12-26T03:43:39.839Z,9.9
2022-12-26T03:44:39.470Z,10
2022-12-26T03:45:39.496Z,10
2022-12-26T03:46:39.612Z,9.9
2022-12-26T03:47:39.477Z,10
2022-12-26T03:48:39.474Z,10
2022-12-26T03:49:39.500Z,10
2022-12-26T03:50:39.476Z,10
2022-12-26T03:51:39.520Z,10
2022-12-26T03:52:39.470Z,10
2022-12-26T03:53:39.470Z,10
2022-12-26T03:54:39.474Z,10
2022-12-26T03:55:39.474Z,10
2022-12-26T03:56:39.504Z,10
2022-12-26T03:57:39.473Z,10
2022-12-26T03:58:39.470Z,10
2022-12-26T03:59:39.488Z,10
2022-12-26T04:00:39.467Z,10
2022-12-26T04:01:39.594Z,10
2022-12-26T04:02:39.632Z,10
2022-12-26T04:03:39.538Z,10
2022-12-26T04:04:39.476Z,10
2022-12-26T04:05:39.483Z,10
2022-12-26T04:06:39.523Z,10
2022-12-26T04:07:55.645Z,10
2022-12-26T04:08:39.493Z,10
2022-12-26T04:09:39.470Z,10
2022-12-26T04:10:39.476Z,10
2022-12-26T04:11:39.479Z,10
2022-12-26T04:12:39.480Z,10
2022-12-26T04:13:39.504Z,10
2022-12-26T04:14:39.476Z,10
2022-12-26T04:15:39.537Z,10
2022-12-26T04:16:39.469Z,10
2022-12-26T04:17:39.477Z,10
2022-12-26T04:18:39.490Z,10
2022-12-26T04:19:39.474Z,10
2022-12-26T04:20:39.490Z,10
2022-12-26T04:21:39.476Z,10
2022-12-26T04:22:39.473Z,10
2022-12-26T04:23:39.485Z,10
2022-12-26T04:24:39.469Z,10
2022-12-26T04:25:49.170Z,10
2022-12-26T04:26:39.473Z,10
2022-12-26T04:27:39.472Z,10
2022-12-26T04:28:39.489Z,10
2022-12-26T04:29:39.473Z,10
2022-12-26T04:30:39.501Z,10
2022-12-26T04:31:39.553Z,10
2022-12-26T04:32:39.474Z,10
2022-12-26T04:33:39.574Z,10
2022-12-26T04:34:39.474Z,10
2022-12-26T04:35:39.498Z,9.9
2022-12-26T04:36:39.467Z,10
2022-12-26T04:37:39.469Z,10
2022-12-26T04:38:39.479Z,10
2022-12-26T04:39:39.480Z,9.9
2022-12-26T04:40:39.512Z,10
2022-12-26T04:41:39.485Z,10
2022-12-26T04:42:39.577Z,10
2022-12-26T04:43:47.927Z,10
2022-12-26T04:44:39.480Z,10
2022-12-26T04:45:39.670Z,10
2022-12-26T04:46:39.524Z,10
2022-12-26T04:47:40.210Z,10
2022-12-26T04:48:39.472Z,10
2022-12-26T04:49:39.473Z,10
2022-12-26T04:50:39.492Z,10
2022-12-26T04:51:39.561Z,10
2022-12-26T04:52:39.744Z,10
2022-12-26T04:53:39.569Z,10
2022-12-26T04:54:39.478Z,10
2022-12-26T04:55:39.596Z,10
2022-12-26T04:56:39.482Z,10
2022-12-26T04:57:39.645Z,10
2022-12-26T04:58:39.471Z,10
2022-12-26T04:59:39.735Z,10
2022-12-26T05:00:39.639Z,10
2022-12-26T05:01:39.648Z,10
2022-12-26T05:02:39.565Z,10
2022-12-26T05:03:39.526Z,10
2022-12-26T05:04:39.467Z,10
2022-12-26T05:05:39.494Z,10
2022-12-26T05:06:39.486Z,10
2022-12-26T05:07:39.481Z,9.9
2022-12-26T05:08:39.469Z,9.9
2022-12-26T05:09:39.471Z,9.9
2022-12-26T05:10:39.471Z,9.8
2022-12-26T05:11:39.475Z,9.8
2022-12-26T05:12:39.493Z,9.8
2022-12-26T05:13:39.466Z,9.8
2022-12-26T05:14:39.473Z,9.8
2022-12-26T05:15:39.533Z,9.8
2022-12-26T05:16:39.470Z,9.8
2022-12-26T05:17:39.484Z,9.8
2022-12-26T05:18:39.467Z,9.7
2022-12-26T05:19:39.474Z,9.7
2022-12-26T05:20:39.471Z,9.7
2022-12-26T05:21:39.483Z,9.7
2022-12-26T05:22:39.479Z,9.6
2022-12-26T05:23:39.467Z,9.6
2022-12-26T05:24:39.466Z,9.6
2022-12-26T05:25:39.465Z,9.6
2022-12-26T05:26:39.479Z,9.5
2022-12-26T05:27:39.503Z,9.5
2022-12-26T05:28:39.473Z,9.5
2022-12-26T05:29:39.472Z,9.5
2022-12-26T05:30:39.491Z,9.4
2022-12-26T05:31:39.604Z,9.4
2022-12-26T05:32:39.525Z,9.4
2022-12-26T05:33:39.472Z,9.4
2022-12-26T05:34:39.469Z,9.3
2022-12-26T05:35:39.502Z,9.3
2022-12-26T05:36:39.497Z,9.3
2022-12-26T05:37:39.484Z,9.2
2022-12-26T05:38:39.473Z,9.2
2022-12-26T05:39:39.483Z,9.2
2022-12-26T05:40:39.476Z,9.2
2022-12-26T05:41:39.468Z,9.2
2022-12-26T05:42:39.495Z,9.2
2022-12-26T05:43:39.483Z,9.2
2022-12-26T05:44:39.511Z,9.1
2022-12-26T05:45:39.475Z,9.1
2022-12-26T05:46:39.543Z,9.1
2022-12-26T05:47:39.475Z,9.1
2022-12-26T05:48:39.479Z,9.1
2022-12-26T05:49:39.474Z,9.1
2022-12-26T05:50:39.468Z,9
2022-12-26T05:51:39.471Z,9
2022-12-26T05:52:39.473Z,9
2022-12-26T05:53:39.466Z,9
2022-12-26T05:54:39.478Z,9
2022-12-26T05:55:39.468Z,9
2022-12-26T05:56:41.871Z,9
2022-12-26T05:57:39.585Z,9
2022-12-26T05:58:39.492Z,9
2022-12-26T05:59:39.492Z,9
2022-12-26T06:00:39.483Z,8.9
2022-12-26T06:01:39.541Z,8.9
2022-12-26T06:02:39.555Z,8.9
2022-12-26T06:03:39.591Z,8.9
2022-12-26T06:04:39.472Z,8.9
2022-12-26T06:05:39.467Z,8.8
2022-12-26T06:06:39.476Z,8.8
2022-12-26T06:07:39.475Z,8.8
2022-12-26T06:08:39.495Z,8.8
2022-12-26T06:09:39.473Z,8.8
2022-12-26T06:10:39.468Z,8.8
2022-12-26T06:11:42.611Z,8.8
2022-12-26T06:12:39.472Z,8.8
2022-12-26T06:13:39.470Z,8.7
2022-12-26T06:14:39.470Z,8.8
2022-12-26T06:15:39.477Z,8.8
2022-12-26T06:16:39.523Z,8.8
2022-12-26T06:17:39.472Z,8.8
2022-12-26T06:18:39.474Z,8.8
2022-12-26T06:19:43.104Z,8.8
2022-12-26T06:20:39.505Z,8.8
2022-12-26T06:21:39.474Z,8.8
2022-12-26T06:22:39.484Z,8.8
2022-12-26T06:23:39.524Z,8.9
2022-12-26T06:24:39.476Z,8.9
2022-12-26T06:25:39.480Z,8.9
2022-12-26T06:26:39.479Z,8.9
2022-12-26T06:27:39.485Z,8.9
2022-12-26T06:28:39.491Z,8.9
2022-12-26T06:29:39.465Z,8.9
2022-12-26T06:30:39.483Z,8.9
2022-12-26T06:31:39.528Z,8.9
2022-12-26T06:32:39.467Z,8.9
2022-12-26T06:33:39.496Z,8.9
2022-12-26T06:34:39.756Z,8.9
2022-12-26T06:35:40.025Z,8.9
2022-12-26T06:36:40.233Z,8.9
2022-12-26T06:37:39.510Z,8.8
2022-12-26T06:38:39.784Z,8.8
2022-12-26T06:39:40.022Z,8.8
2022-12-26T06:40:39.482Z,8.8
2022-12-26T06:41:39.753Z,8.8
2022-12-26T06:42:39.527Z,8.8
2022-12-26T06:43:39.746Z,8.8
2022-12-26T06:44:39.683Z,8.8
2022-12-26T06:45:39.469Z,8.7
2022-12-26T06:46:39.557Z,8.7
2022-12-26T06:47:39.753Z,8.7
2022-12-26T06:48:40.250Z,8.7
2022-12-26T06:49:39.505Z,8.7
2022-12-26T06:50:39.711Z,8.7
2022-12-26T06:51:39.492Z,8.7
2022-12-26T06:52:39.477Z,8.7
2022-12-26T06:53:39.479Z,8.7
2022-12-26T06:54:39.481Z,8.7
2022-12-26T06:55:39.473Z,8.7
2022-12-26T06:56:39.572Z,8.6
2022-12-26T06:57:39.477Z,8.6
2022-12-26T06:58:39.469Z,8.6
2022-12-26T06:59:39.519Z,8.6
2022-12-26T07:00:39.514Z,8.6
2022-12-26T07:01:39.885Z,8.6
2022-12-26T07:02:39.576Z,8.6
2022-12-26T07:03:41.983Z,8.6
2022-12-26T07:04:39.475Z,8.6
2022-12-26T07:05:39.466Z,8.5
2022-12-26T07:06:39.469Z,8.5
2022-12-26T07:07:39.481Z,8.5
2022-12-26T07:08:39.478Z,8.5
2022-12-26T07:09:39.493Z,8.5
2022-12-26T07:10:39.661Z,8.5
2022-12-26T07:11:39.474Z,8.4
2022-12-26T07:12:39.466Z,8.4
2022-12-26T07:13:39.473Z,8.4
2022-12-26T07:14:39.495Z,8.4
2022-12-26T07:15:39.475Z,8.4
2022-12-26T07:16:39.510Z,8.4
2022-12-26T07:17:39.474Z,8.4
2022-12-26T07:18:39.479Z,8.4
2022-12-26T07:19:39.489Z,8.4
2022-12-26T07:20:39.492Z,8.4
2022-12-26T07:21:40.906Z,8.4
2022-12-26T07:22:39.471Z,8.4
2022-12-26T07:23:39.483Z,8.4
2022-12-26T07:24:39.482Z,8.4
2022-12-26T07:25:39.564Z,8.4
2022-12-26T07:26:39.471Z,8.4
2022-12-26T07:27:39.472Z,8.3
2022-12-26T07:28:39.480Z,8.3
2022-12-26T07:29:39.476Z,8.3
2022-12-26T07:30:39.497Z,8.4
2022-12-26T07:31:39.607Z,8.4
2022-12-26T07:32:39.482Z,8.3
2022-12-26T07:33:39.472Z,8.4
2022-12-26T07:34:39.473Z,8.4
2022-12-26T07:35:39.490Z,8.4
2022-12-26T07:36:39.478Z,8.4
2022-12-26T07:37:39.471Z,8.4
2022-12-26T07:38:39.478Z,8.4
2022-12-26T07:39:39.474Z,8.4
2022-12-26T07:40:39.897Z,8.4
2022-12-26T07:41:40.041Z,8.4
2022-12-26T07:42:39.564Z,8.4
2022-12-26T07:43:39.695Z,8.4
2022-12-26T07:44:39.652Z,8.4
2022-12-26T07:45:45.205Z,8.4
2022-12-26T07:46:39.739Z,8.4
2022-12-26T07:47:39.605Z,8.4
2022-12-26T07:48:39.706Z,8.4
2022-12-26T07:49:39.633Z,8.4
2022-12-26T07:50:39.478Z,8.4
2022-12-26T07:51:39.469Z,8.4
2022-12-26T07:52:39.473Z,8.4
2022-12-26T07:53:39.496Z,8.4
2022-12-26T07:54:39.488Z,8.5
2022-12-26T07:55:39.466Z,8.5
2022-12-26T07:56:39.468Z,8.5
2022-12-26T07:57:48.396Z,8.5
2022-12-26T07:58:39.494Z,8.5
2022-12-26T07:59:39.466Z,8.5
2022-12-26T08:00:39.703Z,8.5
2022-12-26T08:01:39.585Z,8.5
2022-12-26T08:02:39.593Z,8.6
2022-12-26T08:03:39.519Z,8.6
2022-12-26T08:04:39.471Z,8.6
2022-12-26T08:05:39.472Z,8.6
2022-12-26T08:06:39.498Z,8.6
2022-12-26T08:07:39.473Z,8.6
2022-12-26T08:08:41.903Z,8.6
2022-12-26T08:09:39.492Z,8.6
2022-12-26T08:10:39.478Z,8.6
2022-12-26T08:11:39.518Z,8.6
2022-12-26T08:12:39.471Z,8.6
2022-12-26T08:13:39.481Z,8.7
2022-12-26T08:14:39.474Z,8.7
2022-12-26T08:15:39.468Z,8.7
2022-12-26T08:16:39.513Z,8.7
2022-12-26T08:17:39.491Z,8.7
2022-12-26T08:18:39.474Z,8.8
2022-12-26T08:19:39.473Z,8.8
2022-12-26T08:20:39.472Z,8.8
2022-12-26T08:21:39.475Z,8.8
2022-12-26T08:22:39.467Z,8.8
2022-12-26T08:23:39.585Z,8.9
2022-12-26T08:24:39.475Z,8.9
2022-12-26T08:25:39.475Z,8.9
2022-12-26T08:26:39.475Z,8.9
2022-12-26T08:27:39.486Z,8.9
2022-12-26T08:28:39.481Z,8.9
2022-12-26T08:29:39.477Z,9
2022-12-26T08:30:39.466Z,9
2022-12-26T08:31:39.471Z,9
2022-12-26T08:32:41.013Z,9
2022-12-26T08:33:39.467Z,9
2022-12-26T08:34:39.708Z,9
2022-12-26T08:35:39.909Z,9
2022-12-26T08:36:39.476Z,9
2022-12-26T08:37:39.472Z,9
2022-12-26T08:38:40.084Z,9
2022-12-26T08:39:39.472Z,9
2022-12-26T08:40:43.819Z,9
2022-12-26T08:41:39.470Z,9
2022-12-26T08:42:56.062Z,9
2022-12-26T08:44:16.387Z,9
2022-12-26T08:44:39.470Z,8.9
2022-12-26T08:45:39.525Z,8.9
2022-12-26T08:46:39.476Z,8.9
2022-12-26T08:47:39.476Z,8.9
2022-12-26T08:48:39.523Z,8.9
2022-12-26T08:49:39.472Z,8.8
2022-12-26T08:50:41.118Z,8.8
2022-12-26T08:51:39.473Z,8.8
2022-12-26T08:52:39.472Z,8.8
2022-12-26T08:53:39.491Z,8.8
2022-12-26T08:54:39.476Z,8.8
2022-12-26T08:55:39.472Z,8.8
2022-12-26T08:56:39.516Z,8.9
2022-12-26T08:57:39.471Z,8.9
2022-12-26T08:58:39.498Z,8.9
2022-12-26T08:59:39.467Z,8.9
2022-12-26T09:00:39.468Z,8.9
2022-12-26T09:01:39.552Z,8.9
2022-12-26T09:02:39.572Z,8.9
2022-12-26T09:03:39.473Z,8.9
2022-12-26T09:04:39.473Z,8.9
2022-12-26T09:05:39.484Z,8.9
2022-12-26T09:06:39.525Z,9
2022-12-26T09:07:39.472Z,9
2022-12-26T09:08:39.474Z,9
2022-12-26T09:09:39.471Z,9
2022-12-26T09:10:39.509Z,9.1
2022-12-26T09:11:39.729Z,9.1
2022-12-26T09:12:39.552Z,9.2
2022-12-26T09:13:39.747Z,9.2
2022-12-26T09:14:39.606Z,9.3
2022-12-26T09:15:39.475Z,9.3
2022-12-26T09:16:41.927Z,9.4
2022-12-26T09:17:39.475Z,9.4
2022-12-26T09:18:39.654Z,9.4
2022-12-26T09:19:39.474Z,9.5
2022-12-26T09:20:39.711Z,9.5
2022-12-26T09:21:39.673Z,9.5
2022-12-26T09:22:39.482Z,9.5
2022-12-26T09:23:39.471Z,9.5
2022-12-26T09:24:39.498Z,9.5
2022-12-26T09:25:39.486Z,9.5
2022-12-26T09:26:39.495Z,9.5
2022-12-26T09:27:39.473Z,9.4
2022-12-26T09:28:39.470Z,9.4
2022-12-26T09:29:39.491Z,9.4
2022-12-26T09:30:39.565Z,9.4
2022-12-26T09:31:39.477Z,9.4
2022-12-26T09:32:39.475Z,9.5
2022-12-26T09:33:39.486Z,9.5
2022-12-26T09:34:39.509Z,9.5
2022-12-26T09:35:39.496Z,9.6
2022-12-26T09:36:39.504Z,9.6
2022-12-26T09:37:39.479Z,9.7
2022-12-26T09:38:39.481Z,9.7
2022-12-26T09:39:39.470Z,9.7
2022-12-26T09:40:39.474Z,9.7
2022-12-26T09:41:39.468Z,9.8
2022-12-26T09:42:39.482Z,9.8
2022-12-26T09:43:39.502Z,9.8
2022-12-26T09:44:39.491Z,9.8
2022-12-26T09:45:39.465Z,9.8
2022-12-26T09:46:39.514Z,9.8
2022-12-26T09:47:39.473Z,9.8
2022-12-26T09:48:39.474Z,9.8
2022-12-26T09:49:39.485Z,9.8
2022-12-26T09:50:42.806Z,9.8
2022-12-26T09:51:39.471Z,9.8
2022-12-26T09:52:39.478Z,9.8
2022-12-26T09:53:39.474Z,9.8
2022-12-26T09:54:39.469Z,9.8
2022-12-26T09:55:39.540Z,9.9
2022-12-26T09:57:03.124Z,9.9
2022-12-26T09:57:39.494Z,9.9
2022-12-26T09:58:39.467Z,9.9
2022-12-26T09:59:39.469Z,9.9
2022-12-26T10:00:39.582Z,9.9
2022-12-26T10:01:39.533Z,9.8
2022-12-26T10:02:39.478Z,9.8
2022-12-26T10:03:39.598Z,9.8
2022-12-26T10:04:39.514Z,9.8
2022-12-26T10:05:39.474Z,9.8
2022-12-26T10:06:39.467Z,9.8
2022-12-26T10:07:39.471Z,9.8
2022-12-26T10:08:39.481Z,9.8
2022-12-26T10:09:39.473Z,9.8
2022-12-26T10:10:39.475Z,9.8
2022-12-26T10:11:39.476Z,9.8
2022-12-26T10:12:39.474Z,9.8
2022-12-26T10:13:39.468Z,9.8
2022-12-26T10:14:39.484Z,9.8
2022-12-26T10:15:39.511Z,9.8
2022-12-26T10:16:39.508Z,9.9
2022-12-26T10:17:39.574Z,9.9
2022-12-26T10:18:39.472Z,9.9
2022-12-26T10:19:39.468Z,10
2022-12-26T10:20:39.530Z,10
2022-12-26T10:21:39.824Z,10
2022-12-26T10:22:40.116Z,10
2022-12-26T10:23:40.335Z,10
2022-12-26T10:24:40.436Z,10.1
2022-12-26T10:25:39.593Z,10.1
2022-12-26T10:26:39.478Z,10.1
2022-12-26T10:27:39.492Z,10.1
2022-12-26T10:28:39.472Z,10.1
2022-12-26T10:29:39.466Z,10.1
2022-12-26T10:30:39.494Z,10.1
2022-12-26T10:31:39.479Z,10
2022-12-26T10:32:39.489Z,10
2022-12-26T10:33:39.472Z,10
2022-12-26T10:34:39.483Z,10
2022-12-26T10:35:39.474Z,9.9
2022-12-26T10:36:39.476Z,9.9
2022-12-26T10:37:39.541Z,9.9
2022-12-26T10:38:39.484Z,9.9
2022-12-26T10:39:39.475Z,9.9
2022-12-26T10:40:39.498Z,9.9
2022-12-26T10:41:39.468Z,9.9
2022-12-26T10:42:39.473Z,9.8
2022-12-26T10:43:39.474Z,9.8
2022-12-26T10:44:39.473Z,9.8
2022-12-26T10:45:39.489Z,9.8
2022-12-26T10:46:39.602Z,9.8
2022-12-26T10:47:39.469Z,9.8
2022-12-26T10:48:39.476Z,9.8
2022-12-26T10:49:39.471Z,9.8
2022-12-26T10:50:39.486Z,9.8
2022-12-26T10:51:39.474Z,9.8
2022-12-26T10:52:39.467Z,9.8
2022-12-26T10:53:39.471Z,9.9
2022-12-26T10:54:39.470Z,9.9
2022-12-26T10:55:39.532Z,10
2022-12-26T10:56:39.471Z,10
2022-12-26T10:57:39.466Z,10.1
2022-12-26T10:58:39.477Z,10.1
2022-12-26T10:59:39.578Z,10.1
2022-12-26T11:00:39.486Z,10.1
2022-12-26T11:01:39.658Z,10.2
2022-12-26T11:02:39.662Z,10.2
2022-12-26T11:03:39.526Z,10.2
2022-12-26T11:05:11.548Z,10.2
2022-12-26T11:06:06.208Z,10.3
2022-12-26T11:06:39.488Z,10.3
2022-12-26T11:07:39.466Z,10.3
2022-12-26T11:08:42.845Z,10.3
2022-12-26T11:09:39.475Z,10.3
2022-12-26T11:10:39.503Z,10.3
2022-12-26T11:11:39.482Z,10.3
2022-12-26T11:12:39.485Z,10.3
2022-12-26T11:13:39.475Z,10.3
2022-12-26T11:14:39.491Z,10.3
2022-12-26T11:15:39.763Z,10.3
2022-12-26T11:16:39.475Z,10.3
2022-12-26T11:17:39.474Z,10.2
2022-12-26T11:18:39.469Z,10.2
2022-12-26T11:19:39.467Z,10.2
2022-12-26T11:20:39.482Z,10.1
2022-12-26T11:21:39.524Z,10.1
2022-12-26T11:22:39.655Z,10.1
2022-12-26T11:23:39.735Z,10.1
2022-12-26T11:24:39.810Z,10.1
2022-12-26T11:25:39.782Z,10.1
2022-12-26T11:26:39.477Z,10.2
2022-12-26T11:27:39.544Z,10.2
2022-12-26T11:28:39.474Z,10.2
2022-12-26T11:29:39.472Z,10.3
2022-12-26T11:30:39.483Z,10.3
2022-12-26T11:31:39.510Z,10.4
2022-12-26T11:32:39.468Z,10.4
2022-12-26T11:33:39.471Z,10.5
2022-12-26T11:34:39.469Z,10.5
2022-12-26T11:35:39.500Z,10.6
2022-12-26T11:36:39.475Z,10.6
2022-12-26T11:37:39.473Z,10.6
2022-12-26T11:38:44.366Z,10.6
2022-12-26T11:39:39.471Z,10.6
2022-12-26T11:40:39.477Z,10.6
2022-12-26T11:41:39.485Z,10.6
2022-12-26T11:42:39.472Z,10.6
2022-12-26T11:43:39.497Z,10.6
2022-12-26T11:44:39.470Z,10.6
2022-12-26T11:45:39.479Z,10.6
2022-12-26T11:46:39.483Z,10.7
2022-12-26T11:47:39.468Z,10.7
2022-12-26T11:48:39.483Z,10.7
2022-12-26T11:49:39.489Z,10.7
2022-12-26T11:50:39.474Z,10.7
2022-12-26T11:51:39.473Z,10.8
2022-12-26T11:52:39.471Z,10.8
2022-12-26T11:53:39.476Z,10.8
2022-12-26T11:54:39.473Z,10.8
2022-12-26T11:55:39.476Z,10.8
2022-12-26T11:56:39.478Z,10.8
2022-12-26T11:57:39.480Z,10.9
2022-12-26T11:58:39.479Z,10.9
2022-12-26T11:59:39.490Z,10.9
2022-12-26T12:00:39.498Z,10.9
2022-12-26T12:01:39.560Z,10.9
2022-12-26T12:02:39.488Z,10.9
2022-12-26T12:03:43.816Z,10.9
2022-12-26T12:04:39.476Z,10.9
2022-12-26T12:05:39.497Z,10.9
2022-12-26T12:06:39.481Z,10.8
2022-12-26T12:07:39.648Z,10.8
2022-12-26T12:08:39.547Z,10.8
2022-12-26T12:09:39.753Z,10.8
2022-12-26T12:10:39.559Z,10.8
2022-12-26T12:11:39.765Z,10.8
2022-12-26T12:12:39.473Z,10.8
2022-12-26T12:13:39.479Z,10.7
2022-12-26T12:14:39.478Z,10.7
2022-12-26T12:15:39.471Z,10.7
2022-12-26T12:16:39.517Z,10.7
2022-12-26T12:17:39.477Z,10.7
2022-12-26T12:18:39.471Z,10.7
2022-12-26T12:19:39.487Z,10.7
2022-12-26T12:20:39.480Z,10.7
2022-12-26T12:21:39.472Z,10.7
2022-12-26T12:22:39.474Z,10.7
2022-12-26T12:23:39.469Z,10.7
2022-12-26T12:24:39.476Z,10.7
2022-12-26T12:25:39.478Z,10.7
2022-12-26T12:26:39.468Z,10.7
2022-12-26T12:27:39.467Z,10.7
2022-12-26T12:28:39.473Z,10.7
2022-12-26T12:29:39.488Z,10.8
2022-12-26T12:30:39.473Z,10.8
2022-12-26T12:31:39.544Z,10.8
2022-12-26T12:32:39.468Z,10.8
2022-12-26T12:33:39.481Z,10.9
2022-12-26T12:34:39.485Z,10.9
2022-12-26T12:35:39.475Z,10.9
2022-12-26T12:36:39.509Z,10.9
2022-12-26T12:37:39.473Z,10.9
2022-12-26T12:38:39.471Z,10.9
2022-12-26T12:39:39.476Z,10.9
2022-12-26T12:40:39.469Z,10.9
2022-12-26T12:41:39.471Z,10.9
2022-12-26T12:42:39.472Z,10.9
2022-12-26T12:43:39.662Z,10.9
2022-12-26T12:44:39.476Z,10.9
2022-12-26T12:45:39.513Z,10.9
2022-12-26T12:46:39.697Z,10.9
2022-12-26T12:47:39.468Z,10.9
2022-12-26T12:48:39.715Z,10.9
2022-12-26T12:49:39.494Z,11
2022-12-26T12:50:39.474Z,10.9
2022-12-26T12:51:39.518Z,11
2022-12-26T12:52:39.806Z,11
2022-12-26T12:53:39.576Z,11
2022-12-26T12:54:39.475Z,11
2022-12-26T12:55:40.292Z,11
2022-12-26T12:56:42.386Z,11
2022-12-26T12:57:39.473Z,11
2022-12-26T12:58:39.474Z,11.1
2022-12-26T12:59:39.471Z,11.1
2022-12-26T13:00:39.549Z,11.1
2022-12-26T13:01:39.611Z,11
2022-12-26T13:02:39.580Z,11
2022-12-26T13:03:39.475Z,11
2022-12-26T13:04:39.471Z,11
2022-12-26T13:05:39.471Z,10.9
2022-12-26T13:06:39.475Z,10.9
2022-12-26T13:07:43.390Z,10.8
2022-12-26T13:08:39.485Z,10.8
2022-12-26T13:09:39.484Z,10.7
2022-12-26T13:10:39.468Z,10.7
2022-12-26T13:11:39.483Z,10.6
2022-12-26T13:12:39.473Z,10.6
2022-12-26T13:13:39.467Z,10.6
2022-12-26T13:14:39.478Z,10.6
2022-12-26T13:15:39.476Z,10.5
2022-12-26T13:16:39.477Z,10.5
2022-12-26T13:17:39.478Z,10.4
2022-12-26T13:18:39.479Z,10.4
2022-12-26T13:19:39.475Z,10.3
2022-12-26T13:20:39.473Z,10.2
2022-12-26T13:21:39.484Z,10.2
2022-12-26T13:22:39.481Z,10.1
2022-12-26T13:23:39.473Z,10.1
2022-12-26T13:24:39.475Z,10
2022-12-26T13:25:39.470Z,10
2022-12-26T13:26:39.482Z,9.9
2022-12-26T13:27:39.469Z,9.9
2022-12-26T13:28:39.476Z,9.9
2022-12-26T13:29:39.475Z,9.9
2022-12-26T13:30:39.467Z,9.8
2022-12-26T13:31:39.542Z,9.8
2022-12-26T13:32:43.334Z,9.8
2022-12-26T13:33:39.471Z,9.8
2022-12-26T13:34:39.476Z,9.8
2022-12-26T13:35:39.473Z,9.8
2022-12-26T13:36:39.485Z,9.8
2022-12-26T13:37:39.490Z,9.8
2022-12-26T13:38:39.470Z,9.9
2022-12-26T13:39:39.476Z,9.9
2022-12-26T13:40:39.470Z,9.9
2022-12-26T13:41:39.480Z,9.9
2022-12-26T13:42:39.474Z,9.8
2022-12-26T13:43:39.471Z,9.8
2022-12-26T13:44:39.471Z,9.8
2022-12-26T13:45:39.500Z,9.8